createdAt,value
2022-12-16T00:00:14.392Z,58.17
2022-12-16T00:05:23.233Z,58.20
2022-12-16T00:10:52.917Z,58.22
2022-12-16T00:16:02.269Z,58.12
2022-12-16T00:21:11.125Z,58.00
2022-12-16T00:26:19.550Z,57.89
2022-12-16T00:31:28.167Z,57.88
2022-12-16T00:36:36.586Z,57.82
2022-12-16T00:41:45.205Z,57.71
2022-12-16T00:46:53.420Z,57.60
2022-12-16T00:52:03.422Z,57.53
2022-12-16T00:57:12.063Z,57.51
2022-12-16T01:02:20.341Z,57.59
2022-12-16T01:07:28.901Z,57.68
2022-12-16T01:12:37.624Z,57.70
2022-12-16T01:17:46.549Z,57.55
2022-12-16T01:22:54.985Z,57.34
2022-12-16T01:28:03.352Z,57.23
2022-12-16T01:33:12.921Z,57.13
2022-12-16T01:38:20.901Z,57.11
2022-12-16T01:43:32.361Z,57.16
2022-12-16T01:48:47.093Z,57.23
2022-12-16T01:54:00.846Z,57.26
2022-12-16T01:59:10.055Z,57.30
2022-12-16T02:04:18.485Z,57.31
2022-12-16T02:09:26.815Z,57.29
2022-12-16T02:14:50.931Z,57.17
2022-12-16T02:20:25.993Z,57.04
2022-12-16T02:26:04.979Z,56.93
2022-12-16T02:31:27.068Z,56.80
2022-12-16T02:36:42.249Z,56.75
2022-12-16T02:41:59.087Z,56.80
2022-12-16T02:47:07.904Z,56.82
2022-12-16T02:52:16.629Z,56.82
2022-12-16T02:57:51.747Z,56.84
2022-12-16T03:03:04.620Z,56.84
2022-12-16T03:08:16.557Z,56.81
2022-12-16T03:13:25.477Z,56.76
2022-12-16T03:18:34.566Z,56.69
2022-12-16T03:23:50.918Z,56.62
2022-12-16T03:29:04.681Z,56.58
2022-12-16T03:34:18.411Z,56.60
2022-12-16T03:39:27.915Z,56.59
2022-12-16T03:44:36.945Z,56.57
2022-12-16T03:49:46.039Z,56.54
2022-12-16T03:54:54.128Z,56.54
2022-12-16T04:00:02.732Z,56.59
2022-12-16T04:05:20.700Z,56.52
2022-12-16T04:10:43.060Z,56.47
2022-12-16T04:16:10.169Z,56.39
2022-12-16T04:21:36.868Z,56.36
2022-12-16T04:27:00.265Z,56.30
2022-12-16T04:32:08.642Z,56.35
2022-12-16T04:37:35.763Z,56.46
2022-12-16T04:43:02.674Z,56.52
2022-12-16T04:48:30.926Z,56.51
2022-12-16T04:53:56.351Z,56.48
2022-12-16T04:59:22.086Z,56.51
2022-12-16T05:04:47.620Z,56.47
2022-12-16T05:10:14.685Z,56.48
2022-12-16T05:15:40.354Z,56.45
2022-12-16T05:21:06.064Z,56.34
2022-12-16T05:26:33.136Z,56.29
2022-12-16T05:31:58.971Z,56.20
2022-12-16T05:37:25.451Z,56.18
2022-12-16T05:42:48.564Z,56.07
2022-12-16T05:48:14.233Z,55.97
2022-12-16T05:53:39.762Z,55.94
2022-12-16T05:59:05.803Z,55.88
2022-12-16T06:04:32.586Z,55.90
2022-12-16T06:09:59.727Z,55.89
2022-12-16T06:15:26.080Z,55.87
2022-12-16T06:20:53.165Z,55.95
2022-12-16T06:26:19.905Z,55.85
2022-12-16T06:31:46.300Z,55.78
2022-12-16T06:37:13.206Z,55.85
2022-12-16T06:42:38.758Z,55.95
2022-12-16T06:48:06.842Z,55.99
2022-12-16T06:53:34.112Z,56.04
2022-12-16T06:59:01.395Z,56.05
2022-12-16T07:04:28.340Z,56.08
2022-12-16T07:09:55.042Z,56.07
2022-12-16T07:15:21.055Z,56.12
2022-12-16T07:20:46.806Z,56.23
2022-12-16T07:26:12.550Z,56.34
2022-12-16T07:31:38.439Z,56.41
2022-12-16T07:37:04.307Z,56.45
2022-12-16T07:42:30.456Z,56.46
2022-12-16T07:47:57.319Z,56.50
2022-12-16T07:53:26.764Z,56.51
2022-12-16T07:58:53.398Z,56.45
2022-12-16T08:04:21.489Z,56.58
2022-12-16T08:09:47.844Z,56.62
2022-12-16T08:15:14.907Z,56.58
2022-12-16T08:20:42.102Z,56.58
2022-12-16T08:26:05.354Z,56.58
2022-12-16T08:31:32.027Z,56.60
2022-12-16T08:36:59.300Z,56.61
2022-12-16T08:42:25.437Z,56.49
2022-12-16T08:47:51.174Z,56.43
2022-12-16T08:53:18.046Z,56.39
2022-12-16T08:58:44.891Z,56.20
2022-12-16T09:04:11.624Z,56.12
2022-12-16T09:09:38.826Z,56.15
2022-12-16T09:15:06.404Z,56.06
2022-12-16T09:20:33.791Z,56.05
2022-12-16T09:26:01.644Z,55.97
2022-12-16T09:31:27.173Z,55.80
2022-12-16T09:36:54.059Z,55.84
2022-12-16T09:42:34.246Z,55.87
2022-12-16T09:48:11.922Z,55.89
2022-12-16T09:53:41.474Z,55.79
2022-12-16T09:59:16.742Z,55.90
2022-12-16T10:04:43.802Z,55.85
2022-12-16T10:10:18.443Z,55.86
2022-12-16T10:15:58.341Z,55.93
2022-12-16T10:21:27.227Z,55.95
2022-12-16T10:27:04.838Z,55.96
2022-12-16T10:32:40.618Z,55.90
2022-12-16T10:38:08.334Z,55.89
2022-12-16T10:43:40.892Z,55.98
2022-12-16T10:49:06.989Z,56.00
2022-12-16T10:54:55.091Z,56.10
2022-12-16T11:00:48.367Z,56.26
2022-12-16T11:06:20.988Z,56.40
2022-12-16T11:11:48.448Z,56.42
2022-12-16T11:17:35.186Z,56.42
2022-12-16T11:23:02.108Z,56.36
2022-12-16T11:28:33.612Z,56.31
2022-12-16T11:34:01.619Z,56.29
2022-12-16T11:39:33.798Z,56.25
2022-12-16T11:45:03.019Z,56.22
2022-12-16T11:50:33.980Z,56.24
2022-12-16T11:56:06.874Z,56.23
2022-12-16T12:01:45.185Z,56.25
2022-12-16T12:07:50.554Z,56.21
2022-12-16T12:13:21.114Z,56.25
2022-12-16T12:18:59.136Z,56.25
2022-12-16T12:24:39.013Z,56.28
2022-12-16T12:30:18.991Z,56.32
2022-12-16T12:36:00.142Z,56.36
2022-12-16T12:41:36.253Z,56.42
2022-12-16T12:47:11.275Z,56.47
2022-12-16T12:52:57.631Z,56.40
2022-12-16T12:58:31.761Z,56.29
2022-12-16T13:04:05.383Z,56.22
2022-12-16T13:09:44.941Z,56.16
2022-12-16T13:15:24.510Z,56.09
2022-12-16T13:21:00.793Z,56.05
2022-12-16T13:26:29.144Z,56.09
2022-12-16T13:32:14.424Z,56.11
2022-12-16T13:37:46.375Z,56.07
2022-12-16T13:43:15.707Z,56.05
2022-12-16T13:48:57.389Z,56.06
2022-12-16T13:54:27.117Z,56.06
2022-12-16T13:59:57.057Z,56.03
2022-12-16T14:05:25.721Z,56.01
2022-12-16T14:10:53.545Z,56.01
2022-12-16T14:16:27.214Z,56.04
2022-12-16T14:22:03.694Z,56.07
2022-12-16T14:27:37.374Z,56.10
2022-12-16T14:33:04.664Z,56.12
2022-12-16T14:38:45.545Z,56.17
2022-12-16T14:44:11.483Z,56.21
2022-12-16T14:49:42.949Z,56.22
2022-12-16T14:55:10.617Z,56.24
2022-12-16T15:00:40.672Z,56.25
2022-12-16T15:06:10.900Z,56.24
2022-12-16T15:11:41.549Z,56.20
2022-12-16T15:17:11.142Z,56.18
2022-12-16T15:22:37.964Z,56.19
2022-12-16T15:28:12.489Z,56.20
2022-12-16T15:33:41.624Z,56.16
2022-12-16T15:39:08.905Z,56.13
2022-12-16T15:44:41.847Z,56.13
2022-12-16T15:50:08.720Z,56.10
2022-12-16T15:55:48.512Z,56.06
2022-12-16T16:01:21.316Z,56.07
2022-12-16T16:06:48.898Z,56.08
2022-12-16T16:12:16.174Z,56.10
2022-12-16T16:17:45.512Z,56.11
2022-12-16T16:23:12.152Z,56.19
2022-12-16T16:28:38.815Z,56.32
2022-12-16T16:34:13.785Z,56.31
2022-12-16T16:39:41.035Z,56.27
2022-12-16T16:45:06.766Z,56.25
2022-12-16T16:50:35.269Z,56.28
2022-12-16T16:56:01.968Z,56.24
2022-12-16T17:01:31.194Z,56.17
2022-12-16T17:06:57.291Z,56.08
2022-12-16T17:12:28.963Z,56.02
2022-12-16T17:17:55.108Z,55.95
2022-12-16T17:23:21.573Z,55.84
2022-12-16T17:28:47.568Z,55.75
2022-12-16T17:34:12.728Z,55.67
2022-12-16T17:39:38.255Z,55.62
2022-12-16T17:45:08.377Z,55.64
2022-12-16T17:50:34.664Z,55.62
2022-12-16T17:56:05.297Z,55.55
2022-12-16T18:01:32.588Z,55.49
2022-12-16T18:06:58.509Z,55.44
2022-12-16T18:12:26.342Z,55.42
2022-12-16T18:17:52.403Z,55.41
2022-12-16T18:23:19.146Z,55.35
2022-12-16T18:28:45.349Z,55.30
2022-12-16T18:34:10.993Z,55.23
2022-12-16T18:39:36.512Z,55.20
2022-12-16T18:45:03.503Z,55.12
2022-12-16T18:50:43.292Z,55.12
2022-12-16T18:56:19.221Z,55.11
2022-12-16T19:01:46.593Z,55.14
2022-12-16T19:07:12.635Z,55.15
2022-12-16T19:12:39.828Z,55.19
2022-12-16T19:18:06.568Z,55.25
2022-12-16T19:23:35.199Z,55.29
2022-12-16T19:29:01.431Z,55.28
2022-12-16T19:34:31.862Z,55.29
2022-12-16T19:39:57.806Z,55.35
2022-12-16T19:45:22.519Z,55.46
2022-12-16T19:50:48.056Z,55.56
2022-12-16T19:56:17.891Z,55.63
2022-12-16T20:07:42.122Z,55.71
2022-12-16T20:13:08.983Z,55.77
2022-12-16T20:18:35.665Z,55.85
2022-12-16T20:24:04.796Z,55.87
2022-12-16T20:29:32.038Z,55.93
2022-12-16T20:34:57.252Z,55.97
2022-12-16T20:40:25.044Z,56.01
2022-12-16T20:45:52.281Z,56.02
2022-12-16T20:57:16.066Z,56.10
2022-12-16T21:02:41.878Z,56.15
2022-12-16T21:08:09.044Z,56.21
2022-12-16T21:13:38.282Z,56.24
2022-12-16T21:14:28.706Z,55.65
2022-12-16T21:19:04.414Z,56.21
2022-12-16T21:24:30.451Z,56.21
2022-12-16T21:29:57.628Z,56.20
2022-12-16T21:35:30.014Z,56.19
2022-12-16T21:40:57.002Z,56.18
2022-12-16T21:46:22.820Z,56.22
2022-12-16T21:51:48.669Z,56.21
2022-12-16T21:57:15.536Z,56.21
2022-12-16T22:02:41.662Z,56.19
2022-12-16T22:08:08.412Z,56.16
2022-12-16T22:13:35.556Z,56.19
2022-12-16T22:19:01.739Z,56.19
2022-12-16T22:24:29.053Z,56.24
2022-12-16T22:30:00.808Z,56.28
2022-12-16T22:35:28.591Z,56.30
2022-12-16T22:40:54.515Z,56.36
2022-12-16T22:46:24.386Z,56.38
2022-12-16T22:51:53.262Z,56.72
2022-12-16T22:57:20.630Z,56.97
2022-12-16T23:02:48.005Z,57.18
2022-12-16T23:08:15.414Z,57.39
2022-12-16T23:13:43.290Z,57.54
2022-12-16T23:19:19.040Z,57.67
2022-12-16T23:24:47.757Z,57.75
2022-12-16T23:30:14.850Z,57.84
2022-12-16T23:35:42.089Z,57.89
2022-12-16T23:41:07.820Z,57.90
2022-12-16T23:46:34.389Z,57.93
2022-12-16T23:52:00.421Z,58.01
2022-12-16T23:57:42.957Z,58.02
